Terminal Aerodrome Forecast
Issued by NWS

Home | Current Version | Previous Version | Text Only | Print | Product List | Glossary On
Versions: 1 2 3 4 5 6 7 8 9 10 11 12 13 14
000
FTUS46 KSEW 050530
TAFOLM
TAF
KOLM 050530Z 0506/0606 20006KT P6SM VCSH SCT050 OVC110
      TEMPO 0506/0510 BKN050 OVC110
     FM051000 18006KT 4SM -SHRASN BR BKN015 OVC050
     FM051300 18005KT 2SM -SHRASN BR BKN007 OVC015
     FM051900 20004KT 4SM -RA BR OVC015
     FM060500 02005KT 5SM -RA BR BKN010 OVC030=

USA.gov is the U.S. government's official web portal to all federal, state and local government web resources and services.